RYR6R EGSS-LEAM
Flight info
| Callsign | RYR6R |
|---|---|
| Flight time | 2h 38m |
| Altitude | 34000 |
| Route | NUGBO M183 SILVA Q41 SAM N63 LELNA/N0440F350 DCT NOVAN DCT NENEM P152 PPN N10 CJN L27 BLN N865 ESILA |
| Aircraft | B738/M-SDE3FGILRWY/SB1 |
Departure
| Time | 2026-04-16 11:52 |
|---|---|
| Airport | London Stansted Airport (EGSS) |
Arrival
| Time | 2026-04-16 14:30 |
|---|---|
| Airport | Almería Airport (LEAM) |
| Time | Latitude | Longitude | Altitude | Speed | Heading |
|---|---|---|---|---|---|
| 2026-04-16 11:29 | 51.89315 | 0.25827 | 361 ft | 0 kts | 43° |
| 2026-04-16 11:44 | 51.89306 | 0.25815 | 360 ft | 2 kts | 37° |
| 2026-04-16 11:44 | 51.89292 | 0.25800 | 357 ft | 2 kts | 26° |
| 2026-04-16 11:45 | 51.89277 | 0.25792 | 359 ft | 2 kts | 357° |
| 2026-04-16 11:45 | 51.89262 | 0.25800 | 356 ft | 2 kts | 321° |
| 2026-04-16 11:45 | 51.89255 | 0.25810 | 353 ft | 0 kts | 314° |
| 2026-04-16 11:45 | 51.89254 | 0.25811 | 353 ft | 0 kts | 314° |
| 2026-04-16 11:47 | 51.89257 | 0.25807 | 354 ft | 1 kts | 314° |
| 2026-04-16 11:47 | 51.89271 | 0.25783 | 359 ft | 5 kts | 314° |
| 2026-04-16 11:47 | 51.89300 | 0.25732 | 356 ft | 8 kts | 312° |
| 2026-04-16 11:47 | 51.89343 | 0.25656 | 355 ft | 10 kts | 311° |
| 2026-04-16 11:48 | 51.89386 | 0.25548 | 356 ft | 12 kts | 298° |
| 2026-04-16 11:48 | 51.89418 | 0.25427 | 355 ft | 12 kts | 258° |
| 2026-04-16 11:48 | 51.89419 | 0.25347 | 354 ft | 0 kts | 299° |
| 2026-04-16 11:49 | 51.89420 | 0.25344 | 354 ft | 1 kts | 300° |
| 2026-04-16 11:49 | 51.89434 | 0.25315 | 351 ft | 10 kts | 306° |
| 2026-04-16 11:49 | 51.89486 | 0.25223 | 344 ft | 11 kts | 305° |
| 2026-04-16 11:49 | 51.89492 | 0.25192 | 351 ft | 0 kts | 274° |
| 2026-04-16 11:50 | 51.89492 | 0.25187 | 347 ft | 2 kts | 274° |
| 2026-04-16 11:50 | 51.89494 | 0.25112 | 346 ft | 11 kts | 270° |
| 2026-04-16 11:50 | 51.89488 | 0.24970 | 354 ft | 14 kts | 245° |
| 2026-04-16 11:51 | 51.89419 | 0.24859 | 349 ft | 18 kts | 222° |
| 2026-04-16 11:51 | 51.89161 | 0.24474 | 350 ft | 85 kts | 223° |
| 2026-04-16 11:51 | 51.88573 | 0.23600 | 349 ft | 143 kts | 221° |
| 2026-04-16 11:51 | 51.87767 | 0.22425 | 745 ft | 164 kts | 224° |
| 2026-04-16 11:52 | 51.86920 | 0.21119 | 1519 ft | 169 kts | 224° |
| 2026-04-16 11:52 | 51.86061 | 0.19841 | 2435 ft | 171 kts | 224° |
| 2026-04-16 11:52 | 51.85144 | 0.18467 | 2936 ft | 192 kts | 225° |
| 2026-04-16 11:52 | 51.84102 | 0.16893 | 3201 ft | 215 kts | 225° |
| 2026-04-16 11:53 | 51.83171 | 0.14880 | 3451 ft | 238 kts | 254° |
| 2026-04-16 11:53 | 51.83239 | 0.12197 | 3938 ft | 249 kts | 288° |
| 2026-04-16 11:53 | 51.84313 | 0.10008 | 3992 ft | 256 kts | 324° |
| 2026-04-16 11:53 | 51.86029 | 0.09092 | 4029 ft | 266 kts | 346° |
| 2026-04-16 11:54 | 51.87901 | 0.08771 | 4001 ft | 271 kts | 352° |
| 2026-04-16 11:54 | 51.89771 | 0.08488 | 3996 ft | 269 kts | 349° |
| 2026-04-16 11:54 | 51.91611 | 0.08114 | 3988 ft | 265 kts | 348° |
| 2026-04-16 11:54 | 51.93423 | 0.07690 | 3997 ft | 264 kts | 347° |
| 2026-04-16 11:55 | 51.95251 | 0.07212 | 4001 ft | 269 kts | 347° |
| 2026-04-16 11:55 | 51.97054 | 0.06416 | 3981 ft | 265 kts | 324° |
| 2026-04-16 11:55 | 51.98208 | 0.04239 | 4297 ft | 256 kts | 285° |
| 2026-04-16 11:55 | 51.98419 | 0.01403 | 4719 ft | 260 kts | 264° |
| 2026-04-16 11:56 | 51.98070 | -0.01429 | 5338 ft | 252 kts | 256° |
| 2026-04-16 11:56 | 51.97686 | -0.04176 | 6382 ft | 250 kts | 256° |
| 2026-04-16 11:56 | 51.97306 | -0.06958 | 7183 ft | 254 kts | 256° |
| 2026-04-16 11:56 | 51.96922 | -0.09760 | 8030 ft | 256 kts | 254° |
| 2026-04-16 11:57 | 51.96030 | -0.12250 | 8778 ft | 262 kts | 222° |
| 2026-04-16 11:57 | 51.94577 | -0.14053 | 9617 ft | 266 kts | 219° |
| 2026-04-16 11:57 | 51.93087 | -0.15875 | 10365 ft | 270 kts | 219° |
| 2026-04-16 11:57 | 51.91563 | -0.17746 | 10871 ft | 285 kts | 219° |
| 2026-04-16 11:58 | 51.89920 | -0.19775 | 11045 ft | 309 kts | 219° |
| 2026-04-16 11:58 | 51.88159 | -0.21954 | 11386 ft | 325 kts | 219° |
| 2026-04-16 11:58 | 51.86344 | -0.24201 | 12051 ft | 331 kts | 220° |
| 2026-04-16 11:58 | 51.84511 | -0.26470 | 12820 ft | 333 kts | 220° |
| 2026-04-16 11:59 | 51.82656 | -0.28769 | 13564 ft | 337 kts | 220° |
| 2026-04-16 11:59 | 51.80786 | -0.31087 | 14247 ft | 341 kts | 220° |
| 2026-04-16 11:59 | 51.78902 | -0.33423 | 14949 ft | 342 kts | 220° |
| 2026-04-16 11:59 | 51.77004 | -0.35775 | 15543 ft | 346 kts | 220° |
| 2026-04-16 12:00 | 51.75091 | -0.38144 | 16183 ft | 349 kts | 220° |
| 2026-04-16 12:00 | 51.73151 | -0.40546 | 16842 ft | 352 kts | 220° |
| 2026-04-16 12:00 | 51.71195 | -0.42965 | 17479 ft | 356 kts | 220° |
| 2026-04-16 12:00 | 51.69224 | -0.45399 | 18124 ft | 359 kts | 220° |
| 2026-04-16 12:01 | 51.67254 | -0.47828 | 18758 ft | 363 kts | 221° |
| 2026-04-16 12:01 | 51.65244 | -0.50305 | 19324 ft | 365 kts | 221° |
| 2026-04-16 12:01 | 51.63226 | -0.52787 | 19906 ft | 367 kts | 221° |
| 2026-04-16 12:02 | 51.59144 | -0.57803 | 21010 ft | 372 kts | 221° |
| 2026-04-16 12:02 | 51.57080 | -0.60334 | 21536 ft | 374 kts | 221° |
| 2026-04-16 12:02 | 51.55005 | -0.62876 | 22078 ft | 376 kts | 221° |
| 2026-04-16 12:02 | 51.52917 | -0.65432 | 22596 ft | 379 kts | 221° |
| 2026-04-16 12:03 | 51.50806 | -0.68012 | 23111 ft | 382 kts | 221° |
| 2026-04-16 12:03 | 51.48687 | -0.70598 | 23615 ft | 384 kts | 221° |
| 2026-04-16 12:03 | 51.46551 | -0.73203 | 24044 ft | 387 kts | 221° |
| 2026-04-16 12:03 | 51.44404 | -0.75818 | 24478 ft | 388 kts | 221° |
| 2026-04-16 12:04 | 51.42247 | -0.78440 | 24918 ft | 390 kts | 221° |
| 2026-04-16 12:04 | 51.40085 | -0.81066 | 25336 ft | 391 kts | 221° |
| 2026-04-16 12:04 | 51.37909 | -0.83706 | 25737 ft | 393 kts | 222° |
| 2026-04-16 12:04 | 51.35726 | -0.86353 | 26135 ft | 395 kts | 222° |
| 2026-04-16 12:05 | 51.33527 | -0.89015 | 26530 ft | 397 kts | 222° |
| 2026-04-16 12:05 | 51.31319 | -0.91684 | 26873 ft | 399 kts | 222° |
| 2026-04-16 12:05 | 51.29104 | -0.94360 | 27228 ft | 401 kts | 223° |
| 2026-04-16 12:05 | 51.26873 | -0.97049 | 27647 ft | 401 kts | 223° |
| 2026-04-16 12:06 | 51.24646 | -0.99730 | 28083 ft | 401 kts | 223° |
| 2026-04-16 12:06 | 51.22410 | -1.02419 | 28420 ft | 404 kts | 223° |
| 2026-04-16 12:06 | 51.20173 | -1.05108 | 28734 ft | 406 kts | 223° |
| 2026-04-16 12:06 | 51.17906 | -1.07829 | 29066 ft | 408 kts | 223° |
| 2026-04-16 12:07 | 51.15635 | -1.10551 | 29402 ft | 409 kts | 223° |
| 2026-04-16 12:07 | 51.13352 | -1.13284 | 29720 ft | 411 kts | 223° |
| 2026-04-16 12:07 | 51.11059 | -1.16024 | 30024 ft | 413 kts | 223° |
| 2026-04-16 12:07 | 51.08761 | -1.18768 | 30375 ft | 413 kts | 223° |
| 2026-04-16 12:08 | 51.06474 | -1.21492 | 30808 ft | 410 kts | 223° |
| 2026-04-16 12:08 | 51.04204 | -1.24193 | 31250 ft | 406 kts | 223° |
| 2026-04-16 12:08 | 51.01945 | -1.26880 | 31633 ft | 405 kts | 224° |
| 2026-04-16 12:08 | 50.99695 | -1.29556 | 31964 ft | 404 kts | 224° |
| 2026-04-16 12:09 | 50.97450 | -1.32220 | 32321 ft | 402 kts | 224° |
| 2026-04-16 12:09 | 50.95170 | -1.34790 | 32698 ft | 404 kts | 219° |
| 2026-04-16 12:09 | 50.92665 | -1.36904 | 33051 ft | 408 kts | 214° |
| 2026-04-16 12:09 | 50.90119 | -1.38892 | 33385 ft | 407 kts | 214° |
| 2026-04-16 12:10 | 50.87582 | -1.40878 | 33700 ft | 406 kts | 215° |
| 2026-04-16 12:10 | 50.85062 | -1.42866 | 34073 ft | 403 kts | 214° |
| 2026-04-16 12:10 | 50.82555 | -1.44854 | 34354 ft | 403 kts | 214° |
| 2026-04-16 12:10 | 50.80054 | -1.46845 | 34551 ft | 403 kts | 214° |
| 2026-04-16 12:11 | 50.77542 | -1.48846 | 34750 ft | 404 kts | 214° |
| 2026-04-16 12:11 | 50.75030 | -1.50841 | 34993 ft | 404 kts | 214° |
| 2026-04-16 12:11 | 50.72525 | -1.52826 | 35231 ft | 403 kts | 214° |
| 2026-04-16 12:11 | 50.70017 | -1.54810 | 35422 ft | 403 kts | 214° |
| 2026-04-16 12:12 | 50.68351 | -1.56127 | 35572 ft | 404 kts | 214° |
| 2026-04-16 12:12 | 50.64998 | -1.58774 | 35861 ft | 403 kts | 214° |
| 2026-04-16 12:12 | 50.62486 | -1.60755 | 36026 ft | 403 kts | 214° |
| 2026-04-16 12:12 | 50.59973 | -1.62735 | 36160 ft | 405 kts | 214° |
| 2026-04-16 12:13 | 50.58303 | -1.64051 | 36275 ft | 406 kts | 213° |
| 2026-04-16 12:13 | 50.55777 | -1.66037 | 36467 ft | 405 kts | 213° |
| 2026-04-16 12:13 | 50.53257 | -1.68015 | 36696 ft | 405 kts | 213° |
| 2026-04-16 12:13 | 50.50736 | -1.69992 | 36893 ft | 405 kts | 213° |
| 2026-04-16 12:14 | 50.48217 | -1.71966 | 37076 ft | 405 kts | 213° |
| 2026-04-16 12:14 | 50.45699 | -1.73937 | 37191 ft | 406 kts | 213° |
| 2026-04-16 12:14 | 50.40624 | -1.77904 | 37177 ft | 407 kts | 213° |
| 2026-04-16 12:15 | 50.35575 | -1.81835 | 37197 ft | 403 kts | 213° |
| 2026-04-16 12:15 | 50.30562 | -1.85732 | 37215 ft | 401 kts | 213° |
| 2026-04-16 12:16 | 50.25578 | -1.89599 | 37203 ft | 399 kts | 213° |
| 2026-04-16 12:16 | 50.20615 | -1.93440 | 37209 ft | 398 kts | 213° |
| 2026-04-16 12:17 | 50.15652 | -1.97274 | 37196 ft | 397 kts | 212° |
| 2026-04-16 12:17 | 50.10691 | -2.01097 | 37208 ft | 399 kts | 212° |
| 2026-04-16 12:18 | 50.05738 | -2.04906 | 37215 ft | 401 kts | 212° |
| 2026-04-16 12:18 | 50.00684 | -2.08783 | 37218 ft | 403 kts | 212° |
| 2026-04-16 12:19 | 49.95488 | -2.12108 | 37220 ft | 413 kts | 204° |
| 2026-04-16 12:19 | 49.89961 | -2.14641 | 37213 ft | 415 kts | 202° |
| 2026-04-16 12:20 | 49.84404 | -2.17159 | 37215 ft | 417 kts | 203° |
| 2026-04-16 12:20 | 49.78839 | -2.19716 | 37211 ft | 418 kts | 203° |
| 2026-04-16 12:21 | 49.73268 | -2.22295 | 37211 ft | 418 kts | 203° |
| 2026-04-16 12:21 | 49.67710 | -2.24870 | 37202 ft | 417 kts | 203° |
| 2026-04-16 12:22 | 49.62158 | -2.27437 | 37214 ft | 415 kts | 202° |
| 2026-04-16 12:22 | 49.56629 | -2.29987 | 37212 ft | 414 kts | 202° |
| 2026-04-16 12:23 | 49.51125 | -2.32519 | 37212 ft | 412 kts | 202° |
| 2026-04-16 12:23 | 49.45656 | -2.35030 | 37215 ft | 409 kts | 202° |
| 2026-04-16 12:24 | 49.40202 | -2.37528 | 37211 ft | 408 kts | 202° |
| 2026-04-16 12:24 | 49.34763 | -2.40015 | 37222 ft | 408 kts | 202° |
| 2026-04-16 12:25 | 49.29324 | -2.42496 | 37214 ft | 408 kts | 202° |
| 2026-04-16 12:25 | 49.23881 | -2.44973 | 37205 ft | 408 kts | 202° |
| 2026-04-16 12:26 | 49.18425 | -2.47450 | 37235 ft | 409 kts | 202° |
| 2026-04-16 12:26 | 49.12953 | -2.49928 | 37229 ft | 411 kts | 202° |
| 2026-04-16 12:27 | 49.07460 | -2.52410 | 37224 ft | 412 kts | 202° |
| 2026-04-16 12:27 | 49.01946 | -2.54895 | 37212 ft | 413 kts | 201° |
| 2026-04-16 12:28 | 48.96421 | -2.57379 | 37217 ft | 415 kts | 201° |
| 2026-04-16 12:28 | 48.90879 | -2.59865 | 37217 ft | 415 kts | 201° |
| 2026-04-16 12:29 | 48.85333 | -2.62348 | 37218 ft | 416 kts | 201° |
| 2026-04-16 12:29 | 48.79778 | -2.64828 | 37212 ft | 416 kts | 201° |
| 2026-04-16 12:30 | 48.74269 | -2.67282 | 37214 ft | 415 kts | 201° |
| 2026-04-16 12:30 | 48.68739 | -2.69738 | 37214 ft | 413 kts | 201° |
| 2026-04-16 12:31 | 48.63225 | -2.72184 | 37215 ft | 412 kts | 201° |
| 2026-04-16 12:31 | 48.57745 | -2.74608 | 37210 ft | 410 kts | 201° |
| 2026-04-16 12:32 | 48.52273 | -2.77024 | 37217 ft | 409 kts | 201° |
| 2026-04-16 12:32 | 48.46809 | -2.79432 | 37211 ft | 409 kts | 201° |
| 2026-04-16 12:33 | 48.41356 | -2.81829 | 37222 ft | 408 kts | 201° |
| 2026-04-16 12:33 | 48.35903 | -2.84221 | 37219 ft | 408 kts | 201° |
| 2026-04-16 12:34 | 48.30443 | -2.86610 | 37231 ft | 409 kts | 201° |
| 2026-04-16 12:34 | 48.24968 | -2.89001 | 37230 ft | 410 kts | 201° |
| 2026-04-16 12:35 | 48.19478 | -2.91393 | 37234 ft | 411 kts | 201° |
| 2026-04-16 12:35 | 48.13980 | -2.93783 | 37229 ft | 412 kts | 201° |
| 2026-04-16 12:36 | 48.08461 | -2.96176 | 37240 ft | 413 kts | 201° |
| 2026-04-16 12:36 | 48.02937 | -2.98566 | 37255 ft | 414 kts | 201° |
| 2026-04-16 12:37 | 47.97402 | -3.00956 | 37242 ft | 414 kts | 201° |
| 2026-04-16 12:37 | 47.91870 | -3.03338 | 37238 ft | 414 kts | 201° |
| 2026-04-16 12:38 | 47.86344 | -3.05713 | 37243 ft | 413 kts | 201° |
| 2026-04-16 12:38 | 47.80830 | -3.08077 | 37248 ft | 412 kts | 201° |
| 2026-04-16 12:39 | 47.75361 | -3.10417 | 37223 ft | 411 kts | 200° |
| 2026-04-16 12:39 | 47.69873 | -3.12760 | 37237 ft | 410 kts | 200° |
| 2026-04-16 12:40 | 47.64399 | -3.15093 | 37254 ft | 409 kts | 200° |
| 2026-04-16 12:40 | 47.58927 | -3.17419 | 37244 ft | 409 kts | 200° |
| 2026-04-16 12:41 | 47.53464 | -3.19736 | 37241 ft | 408 kts | 200° |
| 2026-04-16 12:41 | 47.48008 | -3.22046 | 37251 ft | 408 kts | 200° |
| 2026-04-16 12:42 | 47.42558 | -3.24348 | 37258 ft | 408 kts | 200° |
| 2026-04-16 12:42 | 47.37099 | -3.26649 | 37259 ft | 408 kts | 200° |
| 2026-04-16 12:43 | 47.31638 | -3.28946 | 37240 ft | 408 kts | 200° |
| 2026-04-16 12:43 | 47.26166 | -3.31243 | 37268 ft | 409 kts | 200° |
| 2026-04-16 12:44 | 47.20683 | -3.33539 | 37251 ft | 410 kts | 200° |
| 2026-04-16 12:44 | 47.15187 | -3.35835 | 37258 ft | 411 kts | 200° |
| 2026-04-16 12:45 | 47.09682 | -3.38130 | 37253 ft | 412 kts | 200° |
| 2026-04-16 12:45 | 47.04172 | -3.40422 | 37253 ft | 412 kts | 200° |
| 2026-04-16 12:46 | 46.98652 | -3.42714 | 37260 ft | 412 kts | 200° |
| 2026-04-16 12:46 | 46.93134 | -3.45000 | 37255 ft | 412 kts | 200° |
| 2026-04-16 12:47 | 46.87615 | -3.47281 | 37252 ft | 412 kts | 200° |
| 2026-04-16 12:47 | 46.82099 | -3.49556 | 37255 ft | 412 kts | 200° |
| 2026-04-16 12:48 | 46.76621 | -3.51811 | 37253 ft | 412 kts | 200° |
| 2026-04-16 12:48 | 46.71114 | -3.54073 | 37256 ft | 411 kts | 200° |
| 2026-04-16 12:49 | 46.65600 | -3.56334 | 37259 ft | 411 kts | 200° |
| 2026-04-16 12:49 | 46.60092 | -3.58587 | 37255 ft | 411 kts | 200° |
| 2026-04-16 12:50 | 46.54580 | -3.60836 | 37256 ft | 411 kts | 200° |
| 2026-04-16 12:50 | 46.49074 | -3.63079 | 37263 ft | 411 kts | 200° |
| 2026-04-16 12:51 | 46.43564 | -3.65320 | 37259 ft | 411 kts | 200° |
| 2026-04-16 12:51 | 46.38059 | -3.67553 | 37257 ft | 411 kts | 200° |
| 2026-04-16 12:52 | 46.32448 | -3.69237 | 37254 ft | 417 kts | 188° |
| 2026-04-16 12:52 | 46.26613 | -3.68653 | 37268 ft | 424 kts | 175° |
| 2026-04-16 12:53 | 46.20788 | -3.67141 | 37259 ft | 425 kts | 175° |
| 2026-04-16 12:53 | 46.14965 | -3.65618 | 37257 ft | 425 kts | 175° |
| 2026-04-16 12:54 | 46.09133 | -3.64133 | 37250 ft | 426 kts | 175° |
| 2026-04-16 12:54 | 46.03298 | -3.62673 | 37260 ft | 426 kts | 175° |
| 2026-04-16 12:55 | 45.97464 | -3.61221 | 37256 ft | 426 kts | 175° |
| 2026-04-16 12:55 | 45.91624 | -3.59773 | 37256 ft | 426 kts | 175° |
| 2026-04-16 12:56 | 45.85778 | -3.58325 | 37252 ft | 426 kts | 175° |
| 2026-04-16 12:56 | 45.79935 | -3.56880 | 37253 ft | 426 kts | 175° |
| 2026-04-16 12:57 | 45.74088 | -3.55438 | 37256 ft | 427 kts | 175° |
| 2026-04-16 12:57 | 45.68237 | -3.53997 | 37246 ft | 426 kts | 175° |
| 2026-04-16 12:58 | 45.62389 | -3.52561 | 37258 ft | 427 kts | 175° |
| 2026-04-16 12:58 | 45.56532 | -3.51125 | 37256 ft | 427 kts | 175° |
| 2026-04-16 12:59 | 45.50677 | -3.49693 | 37247 ft | 427 kts | 175° |
| 2026-04-16 13:00 | 45.41925 | -3.47557 | 37247 ft | 428 kts | 175° |
| 2026-04-16 13:00 | 45.37017 | -3.46363 | 37257 ft | 427 kts | 175° |
| 2026-04-16 13:01 | 45.30199 | -3.44707 | 37243 ft | 427 kts | 175° |
| 2026-04-16 13:01 | 45.25287 | -3.43516 | 37251 ft | 427 kts | 175° |
| 2026-04-16 13:02 | 45.19422 | -3.42098 | 37250 ft | 428 kts | 175° |
| 2026-04-16 13:02 | 45.13552 | -3.40681 | 37228 ft | 428 kts | 175° |
| 2026-04-16 13:03 | 45.07722 | -3.39277 | 37240 ft | 428 kts | 175° |
| 2026-04-16 13:03 | 45.01851 | -3.37865 | 37244 ft | 428 kts | 175° |
| 2026-04-16 13:04 | 44.95976 | -3.36456 | 37243 ft | 429 kts | 175° |
| 2026-04-16 13:04 | 44.90092 | -3.35048 | 37233 ft | 429 kts | 175° |
| 2026-04-16 13:05 | 44.84202 | -3.33640 | 37241 ft | 430 kts | 175° |
| 2026-04-16 13:05 | 44.78303 | -3.32234 | 37236 ft | 430 kts | 175° |
| 2026-04-16 13:06 | 44.72399 | -3.30830 | 37237 ft | 431 kts | 175° |
| 2026-04-16 13:06 | 44.66484 | -3.29425 | 37235 ft | 431 kts | 175° |
| 2026-04-16 13:07 | 44.60571 | -3.28024 | 37234 ft | 431 kts | 175° |
| 2026-04-16 13:07 | 44.54647 | -3.26624 | 37217 ft | 432 kts | 175° |
| 2026-04-16 13:08 | 44.48728 | -3.25227 | 37226 ft | 431 kts | 175° |
| 2026-04-16 13:08 | 44.42805 | -3.23821 | 37226 ft | 432 kts | 174° |
| 2026-04-16 13:09 | 44.36891 | -3.22298 | 37209 ft | 432 kts | 174° |
| 2026-04-16 13:09 | 44.30976 | -3.20742 | 37221 ft | 432 kts | 174° |
| 2026-04-16 13:10 | 44.25062 | -3.19200 | 37216 ft | 433 kts | 174° |
| 2026-04-16 13:10 | 44.19134 | -3.17668 | 37219 ft | 433 kts | 174° |
| 2026-04-16 13:11 | 44.13208 | -3.16144 | 37211 ft | 433 kts | 174° |
| 2026-04-16 13:11 | 44.07278 | -3.14622 | 37210 ft | 434 kts | 174° |
| 2026-04-16 13:12 | 44.01335 | -3.13099 | 37208 ft | 434 kts | 174° |
| 2026-04-16 13:12 | 43.95387 | -3.11579 | 37196 ft | 435 kts | 174° |
| 2026-04-16 13:13 | 43.89431 | -3.10059 | 37210 ft | 436 kts | 174° |
| 2026-04-16 13:13 | 43.83463 | -3.08540 | 37205 ft | 436 kts | 174° |
| 2026-04-16 13:14 | 43.77484 | -3.07021 | 37194 ft | 437 kts | 174° |
| 2026-04-16 13:14 | 43.71496 | -3.05502 | 37213 ft | 438 kts | 174° |
| 2026-04-16 13:15 | 43.65500 | -3.03984 | 37207 ft | 438 kts | 173° |
| 2026-04-16 13:15 | 43.59497 | -3.02468 | 37202 ft | 439 kts | 173° |
| 2026-04-16 13:16 | 43.53489 | -3.00954 | 37190 ft | 439 kts | 173° |
| 2026-04-16 13:16 | 43.47488 | -2.99444 | 37194 ft | 439 kts | 173° |
| 2026-04-16 13:17 | 43.41515 | -2.97945 | 37187 ft | 439 kts | 173° |
| 2026-04-16 13:17 | 43.35463 | -2.96428 | 37176 ft | 439 kts | 173° |
| 2026-04-16 13:18 | 43.29445 | -2.94924 | 37189 ft | 440 kts | 173° |
| 2026-04-16 13:18 | 43.23464 | -2.93432 | 37188 ft | 440 kts | 173° |
| 2026-04-16 13:19 | 43.17434 | -2.91930 | 37178 ft | 441 kts | 173° |
| 2026-04-16 13:19 | 43.11396 | -2.90429 | 37187 ft | 441 kts | 173° |
| 2026-04-16 13:20 | 43.05348 | -2.88929 | 37179 ft | 442 kts | 173° |
| 2026-04-16 13:20 | 42.99293 | -2.87431 | 37177 ft | 443 kts | 173° |
| 2026-04-16 13:21 | 42.93225 | -2.85932 | 37179 ft | 443 kts | 173° |
| 2026-04-16 13:21 | 42.87154 | -2.84435 | 37181 ft | 443 kts | 173° |
| 2026-04-16 13:22 | 42.81084 | -2.82941 | 37177 ft | 443 kts | 173° |
| 2026-04-16 13:22 | 42.75003 | -2.81448 | 37175 ft | 444 kts | 173° |
| 2026-04-16 13:23 | 42.68914 | -2.79956 | 37180 ft | 445 kts | 173° |
| 2026-04-16 13:23 | 42.62816 | -2.78464 | 37167 ft | 445 kts | 173° |
| 2026-04-16 13:24 | 42.56724 | -2.76977 | 37164 ft | 445 kts | 173° |
| 2026-04-16 13:24 | 42.50635 | -2.75493 | 37173 ft | 445 kts | 173° |
| 2026-04-16 13:25 | 42.44546 | -2.74013 | 37181 ft | 444 kts | 173° |
| 2026-04-16 13:25 | 42.38460 | -2.72536 | 37181 ft | 444 kts | 173° |
| 2026-04-16 13:26 | 42.32372 | -2.71062 | 37182 ft | 445 kts | 173° |
| 2026-04-16 13:26 | 42.26276 | -2.69589 | 37180 ft | 445 kts | 173° |
| 2026-04-16 13:27 | 42.20177 | -2.68118 | 37185 ft | 445 kts | 173° |
| 2026-04-16 13:27 | 42.14071 | -2.66648 | 37181 ft | 446 kts | 173° |
| 2026-04-16 13:28 | 42.08004 | -2.65190 | 37188 ft | 446 kts | 173° |
| 2026-04-16 13:28 | 42.01887 | -2.63723 | 37183 ft | 447 kts | 173° |
| 2026-04-16 13:29 | 41.95768 | -2.62258 | 37182 ft | 446 kts | 173° |
| 2026-04-16 13:29 | 41.89656 | -2.60798 | 37187 ft | 446 kts | 173° |
| 2026-04-16 13:30 | 41.83541 | -2.59340 | 37193 ft | 447 kts | 173° |
| 2026-04-16 13:30 | 41.77417 | -2.57883 | 37185 ft | 447 kts | 173° |
| 2026-04-16 13:31 | 41.71285 | -2.56426 | 37181 ft | 447 kts | 173° |
| 2026-04-16 13:31 | 41.65145 | -2.54971 | 37180 ft | 448 kts | 173° |
| 2026-04-16 13:32 | 41.59002 | -2.53517 | 37177 ft | 449 kts | 173° |
| 2026-04-16 13:32 | 41.52836 | -2.52252 | 37153 ft | 446 kts | 182° |
| 2026-04-16 13:32 | 41.49769 | -2.52552 | 37191 ft | 439 kts | 194° |
| 2026-04-16 13:33 | 41.46831 | -2.53584 | 37176 ft | 435 kts | 205° |
| 2026-04-16 13:33 | 41.41431 | -2.57096 | 37184 ft | 432 kts | 210° |
| 2026-04-16 13:34 | 41.36015 | -2.60630 | 37191 ft | 435 kts | 207° |
| 2026-04-16 13:34 | 41.30102 | -2.62639 | 37173 ft | 446 kts | 188° |
| 2026-04-16 13:35 | 41.23860 | -2.62369 | 37192 ft | 451 kts | 179° |
| 2026-04-16 13:35 | 41.17589 | -2.61696 | 37190 ft | 453 kts | 179° |
| 2026-04-16 13:36 | 41.11296 | -2.61091 | 37182 ft | 454 kts | 179° |
| 2026-04-16 13:36 | 41.05029 | -2.60535 | 37194 ft | 455 kts | 180° |
| 2026-04-16 13:37 | 40.98708 | -2.59978 | 37191 ft | 455 kts | 180° |
| 2026-04-16 13:37 | 40.92385 | -2.59411 | 37192 ft | 456 kts | 179° |
| 2026-04-16 13:38 | 40.86062 | -2.58838 | 37174 ft | 455 kts | 180° |
| 2026-04-16 13:38 | 40.79749 | -2.58268 | 37185 ft | 455 kts | 180° |
| 2026-04-16 13:39 | 40.73436 | -2.57699 | 37196 ft | 454 kts | 180° |
| 2026-04-16 13:39 | 40.67130 | -2.57134 | 37190 ft | 454 kts | 180° |
| 2026-04-16 13:40 | 40.60835 | -2.56570 | 37195 ft | 453 kts | 180° |
| 2026-04-16 13:40 | 40.54539 | -2.56007 | 37200 ft | 453 kts | 180° |
| 2026-04-16 13:41 | 40.48247 | -2.55445 | 37199 ft | 453 kts | 180° |
| 2026-04-16 13:41 | 40.41956 | -2.54884 | 37192 ft | 453 kts | 180° |
| 2026-04-16 13:42 | 40.35747 | -2.55359 | 37202 ft | 443 kts | 197° |
| 2026-04-16 13:42 | 40.29975 | -2.57951 | 37200 ft | 438 kts | 206° |
| 2026-04-16 13:43 | 40.24300 | -2.60889 | 37208 ft | 439 kts | 206° |
| 2026-04-16 13:43 | 40.18599 | -2.63794 | 37210 ft | 440 kts | 206° |
| 2026-04-16 13:44 | 40.12876 | -2.66671 | 37198 ft | 441 kts | 205° |
| 2026-04-16 13:44 | 40.07131 | -2.69540 | 37209 ft | 442 kts | 206° |
| 2026-04-16 13:45 | 40.01415 | -2.72389 | 37205 ft | 443 kts | 206° |
| 2026-04-16 13:45 | 39.95649 | -2.75259 | 37206 ft | 444 kts | 206° |
| 2026-04-16 13:46 | 39.89888 | -2.78122 | 37211 ft | 443 kts | 206° |
| 2026-04-16 13:46 | 39.84116 | -2.80986 | 37211 ft | 444 kts | 206° |
| 2026-04-16 13:47 | 39.78350 | -2.83841 | 37209 ft | 443 kts | 206° |
| 2026-04-16 13:47 | 39.72588 | -2.86689 | 37214 ft | 443 kts | 206° |
| 2026-04-16 13:48 | 39.66824 | -2.89534 | 37206 ft | 443 kts | 206° |
| 2026-04-16 13:48 | 39.62041 | -2.91891 | 37200 ft | 442 kts | 206° |
| 2026-04-16 13:49 | 39.56285 | -2.94724 | 37197 ft | 442 kts | 206° |
| 2026-04-16 13:49 | 39.50542 | -2.97553 | 37191 ft | 441 kts | 206° |
| 2026-04-16 13:50 | 39.44806 | -3.00375 | 37197 ft | 441 kts | 206° |
| 2026-04-16 13:50 | 39.39081 | -3.03184 | 37196 ft | 440 kts | 206° |
| 2026-04-16 13:51 | 39.33349 | -3.05979 | 37184 ft | 440 kts | 205° |
| 2026-04-16 13:51 | 39.27632 | -3.08757 | 37188 ft | 439 kts | 205° |
| 2026-04-16 13:52 | 39.21913 | -3.11534 | 37186 ft | 439 kts | 205° |
| 2026-04-16 13:52 | 39.16206 | -3.14302 | 37186 ft | 438 kts | 205° |
| 2026-04-16 13:53 | 39.10497 | -3.17067 | 37187 ft | 438 kts | 205° |
| 2026-04-16 13:53 | 39.04787 | -3.19828 | 37182 ft | 438 kts | 205° |
| 2026-04-16 13:54 | 38.99076 | -3.22583 | 37184 ft | 439 kts | 205° |
| 2026-04-16 13:54 | 38.93359 | -3.25334 | 37183 ft | 439 kts | 205° |
| 2026-04-16 13:55 | 38.87637 | -3.28082 | 37179 ft | 439 kts | 205° |
| 2026-04-16 13:55 | 38.81914 | -3.30828 | 37172 ft | 439 kts | 205° |
| 2026-04-16 13:56 | 38.76188 | -3.33570 | 37187 ft | 439 kts | 205° |
| 2026-04-16 13:56 | 38.70463 | -3.36308 | 37176 ft | 439 kts | 205° |
| 2026-04-16 13:57 | 38.64730 | -3.39044 | 37176 ft | 440 kts | 205° |
| 2026-04-16 13:57 | 38.58997 | -3.41777 | 37178 ft | 440 kts | 205° |
| 2026-04-16 13:58 | 38.50399 | -3.45864 | 37175 ft | 439 kts | 205° |
| 2026-04-16 13:58 | 38.44673 | -3.48582 | 37180 ft | 439 kts | 204° |
| 2026-04-16 13:59 | 38.38958 | -3.51290 | 37161 ft | 438 kts | 205° |
| 2026-04-16 13:59 | 38.33295 | -3.53967 | 37170 ft | 437 kts | 204° |
| 2026-04-16 14:00 | 38.27587 | -3.56663 | 37163 ft | 437 kts | 205° |
| 2026-04-16 14:00 | 38.24744 | -3.58004 | 37003 ft | 437 kts | 204° |
| 2026-04-16 14:00 | 38.21902 | -3.59343 | 36692 ft | 432 kts | 204° |
| 2026-04-16 14:01 | 38.19102 | -3.60659 | 36293 ft | 427 kts | 204° |
| 2026-04-16 14:01 | 38.16305 | -3.61872 | 35934 ft | 425 kts | 198° |
| 2026-04-16 14:01 | 38.13391 | -3.62550 | 35569 ft | 425 kts | 188° |
| 2026-04-16 14:01 | 38.10441 | -3.62658 | 35232 ft | 423 kts | 184° |
| 2026-04-16 14:02 | 38.07502 | -3.62652 | 34855 ft | 421 kts | 183° |
| 2026-04-16 14:02 | 38.04581 | -3.62631 | 34482 ft | 418 kts | 183° |
| 2026-04-16 14:02 | 38.01675 | -3.62619 | 34100 ft | 416 kts | 183° |
| 2026-04-16 14:02 | 37.98790 | -3.62621 | 33683 ft | 414 kts | 183° |
| 2026-04-16 14:03 | 37.95920 | -3.62633 | 33284 ft | 411 kts | 183° |
| 2026-04-16 14:03 | 37.93067 | -3.62653 | 32904 ft | 408 kts | 183° |
| 2026-04-16 14:03 | 37.90237 | -3.62676 | 32535 ft | 405 kts | 183° |
| 2026-04-16 14:03 | 37.87427 | -3.62700 | 32167 ft | 403 kts | 183° |
| 2026-04-16 14:04 | 37.84640 | -3.62724 | 31816 ft | 400 kts | 183° |
| 2026-04-16 14:04 | 37.81861 | -3.62748 | 31458 ft | 398 kts | 183° |
| 2026-04-16 14:04 | 37.79102 | -3.62772 | 31111 ft | 395 kts | 183° |
| 2026-04-16 14:04 | 37.76356 | -3.62795 | 30763 ft | 393 kts | 183° |
| 2026-04-16 14:05 | 37.73624 | -3.62818 | 30416 ft | 392 kts | 183° |
| 2026-04-16 14:05 | 37.70907 | -3.62841 | 30039 ft | 390 kts | 183° |
| 2026-04-16 14:05 | 37.68199 | -3.62863 | 29639 ft | 388 kts | 183° |
| 2026-04-16 14:05 | 37.65513 | -3.62886 | 29256 ft | 384 kts | 182° |
| 2026-04-16 14:06 | 37.62859 | -3.62906 | 28977 ft | 379 kts | 182° |
| 2026-04-16 14:06 | 37.60232 | -3.62925 | 28706 ft | 377 kts | 182° |
| 2026-04-16 14:06 | 37.57608 | -3.62945 | 28432 ft | 375 kts | 182° |
| 2026-04-16 14:06 | 37.55018 | -3.62965 | 28100 ft | 371 kts | 182° |
| 2026-04-16 14:07 | 37.52442 | -3.62985 | 27741 ft | 369 kts | 182° |
| 2026-04-16 14:07 | 37.49885 | -3.63005 | 27392 ft | 366 kts | 182° |
| 2026-04-16 14:07 | 37.47345 | -3.63024 | 27046 ft | 364 kts | 182° |
| 2026-04-16 14:07 | 37.44822 | -3.63043 | 26712 ft | 361 kts | 182° |
| 2026-04-16 14:08 | 37.42315 | -3.62974 | 26356 ft | 361 kts | 172° |
| 2026-04-16 14:08 | 37.39966 | -3.61932 | 26000 ft | 361 kts | 148° |
| 2026-04-16 14:08 | 37.38079 | -3.59893 | 25794 ft | 354 kts | 129° |
| 2026-04-16 14:08 | 37.36785 | -3.57274 | 25487 ft | 352 kts | 117° |
| 2026-04-16 14:09 | 37.35693 | -3.54538 | 25163 ft | 350 kts | 116° |
| 2026-04-16 14:09 | 37.34628 | -3.51786 | 24836 ft | 349 kts | 115° |
| 2026-04-16 14:09 | 37.33568 | -3.49056 | 24518 ft | 348 kts | 116° |
| 2026-04-16 14:09 | 37.32498 | -3.46331 | 24177 ft | 347 kts | 116° |
| 2026-04-16 14:10 | 37.31421 | -3.43615 | 23843 ft | 347 kts | 116° |
| 2026-04-16 14:10 | 37.30449 | -3.40838 | 23280 ft | 350 kts | 106° |
| 2026-04-16 14:10 | 37.29882 | -3.37845 | 22738 ft | 354 kts | 101° |
| 2026-04-16 14:10 | 37.29408 | -3.34823 | 22399 ft | 351 kts | 100° |
| 2026-04-16 14:11 | 37.28955 | -3.31832 | 22113 ft | 347 kts | 100° |
| 2026-04-16 14:11 | 37.28503 | -3.28872 | 21811 ft | 344 kts | 100° |
| 2026-04-16 14:11 | 37.28044 | -3.25933 | 21409 ft | 344 kts | 101° |
| 2026-04-16 14:11 | 37.27575 | -3.22984 | 21080 ft | 342 kts | 101° |
| 2026-04-16 14:12 | 37.27107 | -3.20079 | 20798 ft | 338 kts | 101° |
| 2026-04-16 14:12 | 37.26638 | -3.17198 | 20470 ft | 336 kts | 101° |
| 2026-04-16 14:12 | 37.26167 | -3.14325 | 20126 ft | 335 kts | 101° |
| 2026-04-16 14:12 | 37.25698 | -3.11471 | 19810 ft | 333 kts | 101° |
| 2026-04-16 14:13 | 37.25230 | -3.08637 | 19507 ft | 331 kts | 101° |
| 2026-04-16 14:13 | 37.24766 | -3.05829 | 19170 ft | 326 kts | 101° |
| 2026-04-16 14:13 | 37.24304 | -3.03049 | 18759 ft | 324 kts | 101° |
| 2026-04-16 14:13 | 37.23846 | -3.00286 | 18304 ft | 323 kts | 101° |
| 2026-04-16 14:14 | 37.23388 | -2.97538 | 17819 ft | 321 kts | 101° |
| 2026-04-16 14:14 | 37.22939 | -2.94840 | 17369 ft | 319 kts | 100° |
| 2026-04-16 14:14 | 37.22486 | -2.92127 | 16978 ft | 315 kts | 100° |
| 2026-04-16 14:14 | 37.22040 | -2.89463 | 16639 ft | 309 kts | 101° |
| 2026-04-16 14:15 | 37.21597 | -2.86816 | 16317 ft | 304 kts | 100° |
| 2026-04-16 14:15 | 37.21170 | -2.84270 | 16011 ft | 299 kts | 100° |
| 2026-04-16 14:15 | 37.20745 | -2.81742 | 15698 ft | 295 kts | 100° |
| 2026-04-16 14:15 | 37.20323 | -2.79229 | 15428 ft | 294 kts | 100° |
| 2026-04-16 14:16 | 37.19901 | -2.76722 | 15144 ft | 293 kts | 100° |
| 2026-04-16 14:16 | 37.19480 | -2.74219 | 14853 ft | 293 kts | 98° |
| 2026-04-16 14:16 | 37.19059 | -2.71722 | 14545 ft | 292 kts | 98° |
| 2026-04-16 14:16 | 37.18638 | -2.69233 | 14256 ft | 291 kts | 99° |
| 2026-04-16 14:17 | 37.18220 | -2.66759 | 13952 ft | 289 kts | 99° |
| 2026-04-16 14:17 | 37.17803 | -2.64299 | 13636 ft | 288 kts | 99° |
| 2026-04-16 14:17 | 37.17388 | -2.61851 | 13321 ft | 287 kts | 99° |
| 2026-04-16 14:17 | 37.16973 | -2.59408 | 13017 ft | 286 kts | 99° |
| 2026-04-16 14:18 | 37.16561 | -2.56980 | 12720 ft | 284 kts | 99° |
| 2026-04-16 14:18 | 37.16148 | -2.54560 | 12424 ft | 283 kts | 99° |
| 2026-04-16 14:18 | 37.15736 | -2.52141 | 12129 ft | 283 kts | 99° |
| 2026-04-16 14:18 | 37.15325 | -2.49736 | 11830 ft | 282 kts | 99° |
| 2026-04-16 14:19 | 37.14916 | -2.47338 | 11550 ft | 281 kts | 99° |
| 2026-04-16 14:19 | 37.14508 | -2.44953 | 11256 ft | 280 kts | 99° |
| 2026-04-16 14:19 | 37.14099 | -2.42569 | 10967 ft | 280 kts | 99° |
| 2026-04-16 14:19 | 37.13690 | -2.40186 | 10669 ft | 280 kts | 99° |
| 2026-04-16 14:20 | 37.13281 | -2.37804 | 10389 ft | 279 kts | 100° |
| 2026-04-16 14:20 | 37.12876 | -2.35458 | 10276 ft | 272 kts | 100° |
| 2026-04-16 14:20 | 37.12476 | -2.33130 | 9955 ft | 274 kts | 99° |
| 2026-04-16 14:20 | 37.12070 | -2.30777 | 9519 ft | 279 kts | 99° |
| 2026-04-16 14:21 | 37.11662 | -2.28410 | 9116 ft | 278 kts | 99° |
| 2026-04-16 14:21 | 37.11253 | -2.26045 | 8729 ft | 276 kts | 100° |
| 2026-04-16 14:21 | 37.10853 | -2.23733 | 8346 ft | 276 kts | 101° |
| 2026-04-16 14:21 | 37.10446 | -2.21380 | 7998 ft | 277 kts | 99° |
| 2026-04-16 14:22 | 37.10037 | -2.19024 | 7698 ft | 276 kts | 101° |
| 2026-04-16 14:22 | 37.09630 | -2.16691 | 7552 ft | 271 kts | 101° |
| 2026-04-16 14:22 | 37.09233 | -2.14420 | 7409 ft | 264 kts | 101° |
| 2026-04-16 14:22 | 37.08764 | -2.12229 | 7280 ft | 258 kts | 115° |
| 2026-04-16 14:23 | 37.07626 | -2.10542 | 7106 ft | 255 kts | 144° |
| 2026-04-16 14:23 | 37.05957 | -2.09752 | 6723 ft | 260 kts | 172° |
| 2026-04-16 14:23 | 37.04142 | -2.09739 | 6359 ft | 263 kts | 185° |
| 2026-04-16 14:23 | 37.02325 | -2.09996 | 6007 ft | 262 kts | 187° |
| 2026-04-16 14:24 | 37.00524 | -2.10281 | 5660 ft | 259 kts | 187° |
| 2026-04-16 14:24 | 36.98754 | -2.10545 | 5325 ft | 254 kts | 186° |
| 2026-04-16 14:24 | 36.97014 | -2.10787 | 5010 ft | 249 kts | 186° |
| 2026-04-16 14:24 | 36.95311 | -2.11014 | 4688 ft | 244 kts | 186° |
| 2026-04-16 14:25 | 36.93637 | -2.11234 | 4378 ft | 240 kts | 185° |
| 2026-04-16 14:25 | 36.91993 | -2.11459 | 4098 ft | 234 kts | 189° |
| 2026-04-16 14:25 | 36.90565 | -2.12295 | 3787 ft | 228 kts | 226° |
| 2026-04-16 14:25 | 36.89930 | -2.13996 | 3657 ft | 210 kts | 263° |
| 2026-04-16 14:26 | 36.89678 | -2.15731 | 3507 ft | 201 kts | 253° |
| 2026-04-16 14:26 | 36.89239 | -2.17415 | 3075 ft | 207 kts | 251° |
| 2026-04-16 14:26 | 36.88801 | -2.19111 | 2804 ft | 204 kts | 252° |
| 2026-04-16 14:26 | 36.88383 | -2.20788 | 2515 ft | 199 kts | 252° |
| 2026-04-16 14:27 | 36.87988 | -2.22389 | 2219 ft | 190 kts | 252° |
| 2026-04-16 14:27 | 36.87611 | -2.23919 | 2019 ft | 177 kts | 253° |
| 2026-04-16 14:27 | 36.87259 | -2.25355 | 1768 ft | 167 kts | 252° |
| 2026-04-16 14:27 | 36.86916 | -2.26744 | 1719 ft | 170 kts | 252° |
| 2026-04-16 14:28 | 36.86560 | -2.28190 | 1331 ft | 172 kts | 253° |
| 2026-04-16 14:28 | 36.86225 | -2.29552 | 1099 ft | 156 kts | 251° |
| 2026-04-16 14:28 | 36.85921 | -2.30788 | 877 ft | 143 kts | 251° |
| 2026-04-16 14:28 | 36.85636 | -2.31950 | 676 ft | 140 kts | 252° |
| 2026-04-16 14:29 | 36.85350 | -2.33127 | 481 ft | 144 kts | 252° |
| 2026-04-16 14:29 | 36.85062 | -2.34323 | 277 ft | 144 kts | 250° |
| 2026-04-16 14:29 | 36.84767 | -2.35501 | 68 ft | 141 kts | 251° |
| 2026-04-16 14:29 | 36.84507 | -2.36541 | 55 ft | 99 kts | 253° |
| 2026-04-16 14:30 | 36.84366 | -2.37103 | 61 ft | 36 kts | 252° |
| 2026-04-16 14:30 | 36.84319 | -2.37304 | 60 ft | 22 kts | 253° |
| 2026-04-16 14:30 | 36.84268 | -2.37516 | 60 ft | 28 kts | 252° |
| 2026-04-16 14:30 | 36.84210 | -2.37744 | 60 ft | 27 kts | 255° |
| 2026-04-16 14:31 | 36.84197 | -2.37951 | 57 ft | 19 kts | 277° |
| 2026-04-16 14:31 | 36.84215 | -2.38106 | 61 ft | 17 kts | 280° |
| 2026-04-16 14:31 | 36.84232 | -2.38187 | 62 ft | 3 kts | 303° |
| 2026-04-16 14:31 | 36.84249 | -2.38203 | 63 ft | 4 kts | 334° |
| 2026-04-16 14:32 | 36.84296 | -2.38166 | 65 ft | 13 kts | 74° |
| 2026-04-16 14:32 | 36.84313 | -2.38052 | 62 ft | 13 kts | 76° |
| 2026-04-16 14:32 | 36.84341 | -2.37944 | 58 ft | 13 kts | 65° |
| 2026-04-16 14:32 | 36.84416 | -2.37912 | 58 ft | 13 kts | 348° |
| 2026-04-16 14:33 | 36.84505 | -2.37927 | 69 ft | 8 kts | 346° |
| 2026-04-16 14:33 | 36.84516 | -2.37931 | 69 ft | 0 kts | 343° |